sensor_id;sensor_type;location;lat;lon;timestamp;P1;durP1;ratioP1;P2;durP2;ratioP2
55037;SDS011;40937;53.594;10.034;2023-12-20T00:00:02;22.20;;;3.60;;
55037;SDS011;40937;53.594;10.034;2023-12-20T00:02:30;13.43;;;3.17;;
55037;SDS011;40937;53.594;10.034;2023-12-20T00:04:58;12.35;;;3.33;;
55037;SDS011;40937;53.594;10.034;2023-12-20T00:07:26;11.25;;;2.70;;
55037;SDS011;40937;53.594;10.034;2023-12-20T00:09:55;14.95;;;3.28;;
55037;SDS011;40937;53.594;10.034;2023-12-20T00:12:22;13.75;;;3.40;;
55037;SDS011;40937;53.594;10.034;2023-12-20T00:14:49;15.70;;;2.97;;
55037;SDS011;40937;53.594;10.034;2023-12-20T00:17:16;18.98;;;3.67;;
55037;SDS011;40937;53.594;10.034;2023-12-20T00:19:43;20.10;;;3.72;;
55037;SDS011;40937;53.594;10.034;2023-12-20T00:22:11;16.95;;;2.75;;
55037;SDS011;40937;53.594;10.034;2023-12-20T00:24:38;17.27;;;3.53;;
55037;SDS011;40937;53.594;10.034;2023-12-20T00:27:07;12.70;;;3.15;;
55037;SDS011;40937;53.594;10.034;2023-12-20T00:29:34;12.88;;;2.70;;
55037;SDS011;40937;53.594;10.034;2023-12-20T00:32:01;12.27;;;3.67;;
55037;SDS011;40937;53.594;10.034;2023-12-20T00:34:28;16.70;;;3.25;;
55037;SDS011;40937;53.594;10.034;2023-12-20T00:36:55;18.48;;;2.88;;
55037;SDS011;40937;53.594;10.034;2023-12-20T00:39:23;16.63;;;3.55;;
55037;SDS011;40937;53.594;10.034;2023-12-20T00:41:50;12.65;;;3.13;;
55037;SDS011;40937;53.594;10.034;2023-12-20T00:44:18;10.02;;;2.97;;
55037;SDS011;40937;53.594;10.034;2023-12-20T00:46:46;14.10;;;3.30;;
55037;SDS011;40937;53.594;10.034;2023-12-20T00:49:13;17.83;;;3.30;;
55037;SDS011;40937;53.594;10.034;2023-12-20T00:51:40;20.08;;;3.67;;
55037;SDS011;40937;53.594;10.034;2023-12-20T00:54:07;18.23;;;3.42;;
55037;SDS011;40937;53.594;10.034;2023-12-20T00:56:35;18.42;;;3.28;;
55037;SDS011;40937;53.594;10.034;2023-12-20T00:59:02;13.57;;;2.72;;
55037;SDS011;40937;53.594;10.034;2023-12-20T01:01:30;19.38;;;3.53;;
55037;SDS011;40937;53.594;10.034;2023-12-20T01:03:58;17.40;;;3.65;;
55037;SDS011;40937;53.594;10.034;2023-12-20T01:06:25;17.85;;;3.42;;
55037;SDS011;40937;53.594;10.034;2023-12-20T01:08:53;18.73;;;3.83;;
55037;SDS011;40937;53.594;10.034;2023-12-20T01:11:20;18.25;;;3.03;;
55037;SDS011;40937;53.594;10.034;2023-12-20T01:13:47;16.38;;;3.25;;
55037;SDS011;40937;53.594;10.034;2023-12-20T01:16:14;14.20;;;3.25;;
55037;SDS011;40937;53.594;10.034;2023-12-20T01:18:43;12.20;;;3.10;;
55037;SDS011;40937;53.594;10.034;2023-12-20T01:21:10;13.57;;;2.50;;
55037;SDS011;40937;53.594;10.034;2023-12-20T01:23:37;12.30;;;2.35;;
55037;SDS011;40937;53.594;10.034;2023-12-20T01:26:05;12.00;;;2.80;;
55037;SDS011;40937;53.594;10.034;2023-12-20T01:28:32;18.55;;;3.47;;
55037;SDS011;40937;53.594;10.034;2023-12-20T01:30:59;17.42;;;3.28;;
55037;SDS011;40937;53.594;10.034;2023-12-20T01:33:26;14.80;;;3.42;;
55037;SDS011;40937;53.594;10.034;2023-12-20T01:35:55;15.27;;;3.10;;
55037;SDS011;40937;53.594;10.034;2023-12-20T01:38:22;15.15;;;3.88;;
55037;SDS011;40937;53.594;10.034;2023-12-20T01:40:52;21.85;;;3.28;;
55037;SDS011;40937;53.594;10.034;2023-12-20T01:43:19;12.57;;;2.60;;
55037;SDS011;40937;53.594;10.034;2023-12-20T01:45:47;14.00;;;3.40;;
55037;SDS011;40937;53.594;10.034;2023-12-20T01:48:15;16.73;;;3.35;;
55037;SDS011;40937;53.594;10.034;2023-12-20T01:50:43;17.05;;;3.08;;
55037;SDS011;40937;53.594;10.034;2023-12-20T01:53:13;17.98;;;2.75;;
55037;SDS011;40937;53.594;10.034;2023-12-20T01:55:41;12.20;;;2.95;;
55037;SDS011;40937;53.594;10.034;2023-12-20T01:58:09;11.55;;;3.00;;
55037;SDS011;40937;53.594;10.034;2023-12-20T02:00:38;12.98;;;2.58;;
55037;SDS011;40937;53.594;10.034;2023-12-20T02:03:06;17.13;;;3.42;;
55037;SDS011;40937;53.594;10.034;2023-12-20T02:05:34;19.92;;;2.95;;
55037;SDS011;40937;53.594;10.034;2023-12-20T02:08:02;19.00;;;3.33;;
55037;SDS011;40937;53.594;10.034;2023-12-20T02:10:31;15.05;;;3.42;;
55037;SDS011;40937;53.594;10.034;2023-12-20T02:12:59;10.63;;;2.80;;
55037;SDS011;40937;53.594;10.034;2023-12-20T02:15:26;19.98;;;4.20;;
55037;SDS011;40937;53.594;10.034;2023-12-20T02:17:53;15.20;;;3.15;;
55037;SDS011;40937;53.594;10.034;2023-12-20T02:20:21;16.73;;;3.45;;
55037;SDS011;40937;53.594;10.034;2023-12-20T02:22:49;16.60;;;3.08;;
55037;SDS011;40937;53.594;10.034;2023-12-20T02:25:16;15.57;;;3.53;;
55037;SDS011;40937;53.594;10.034;2023-12-20T02:27:43;12.73;;;2.78;;
55037;SDS011;40937;53.594;10.034;2023-12-20T02:30:11;15.35;;;3.33;;
55037;SDS011;40937;53.594;10.034;2023-12-20T02:32:38;24.52;;;3.25;;
55037;SDS011;40937;53.594;10.034;2023-12-20T02:35:06;12.27;;;3.10;;
55037;SDS011;40937;53.594;10.034;2023-12-20T02:37:33;12.55;;;3.00;;
55037;SDS011;40937;53.594;10.034;2023-12-20T02:40:02;14.98;;;3.38;;
55037;SDS011;40937;53.594;10.034;2023-12-20T02:42:30;11.25;;;2.88;;
55037;SDS011;40937;53.594;10.034;2023-12-20T02:44:57;15.65;;;3.03;;
55037;SDS011;40937;53.594;10.034;2023-12-20T02:47:24;14.52;;;2.95;;
55037;SDS011;40937;53.594;10.034;2023-12-20T02:49:51;12.52;;;3.33;;
55037;SDS011;40937;53.594;10.034;2023-12-20T02:52:18;18.50;;;3.05;;
55037;SDS011;40937;53.594;10.034;2023-12-20T02:54:45;10.68;;;2.47;;
55037;SDS011;40937;53.594;10.034;2023-12-20T02:57:14;12.10;;;2.53;;
55037;SDS011;40937;53.594;10.034;2023-12-20T02:59:41;21.83;;;3.75;;
55037;SDS011;40937;53.594;10.034;2023-12-20T03:02:08;16.38;;;2.78;;
55037;SDS011;40937;53.594;10.034;2023-12-20T03:04:35;16.92;;;3.33;;
55037;SDS011;40937;53.594;10.034;2023-12-20T03:07:03;15.95;;;3.13;;
55037;SDS011;40937;53.594;10.034;2023-12-20T03:09:30;22.27;;;3.83;;
55037;SDS011;40937;53.594;10.034;2023-12-20T03:11:57;13.95;;;3.10;;
55037;SDS011;40937;53.594;10.034;2023-12-20T03:14:25;13.50;;;2.70;;
55037;SDS011;40937;53.594;10.034;2023-12-20T03:16:53;15.07;;;2.55;;
55037;SDS011;40937;53.594;10.034;2023-12-20T03:19:20;17.83;;;2.95;;
55037;SDS011;40937;53.594;10.034;2023-12-20T03:21:47;14.57;;;3.45;;
55037;SDS011;40937;53.594;10.034;2023-12-20T03:24:14;16.17;;;2.83;;
55037;SDS011;40937;53.594;10.034;2023-12-20T03:26:41;19.25;;;3.63;;
55037;SDS011;40937;53.594;10.034;2023-12-20T03:29:08;17.17;;;3.25;;
55037;SDS011;40937;53.594;10.034;2023-12-20T03:31:37;10.57;;;2.80;;
55037;SDS011;40937;53.594;10.034;2023-12-20T03:34:04;14.07;;;3.55;;
55037;SDS011;40937;53.594;10.034;2023-12-20T03:36:31;14.23;;;2.63;;
55037;SDS011;40937;53.594;10.034;2023-12-20T03:38:58;9.73;;;3.63;;
55037;SDS011;40937;53.594;10.034;2023-12-20T03:41:25;17.67;;;3.28;;
55037;SDS011;40937;53.594;10.034;2023-12-20T03:43:52;17.77;;;2.53;;
55037;SDS011;40937;53.594;10.034;2023-12-20T03:46:20;19.77;;;3.63;;
55037;SDS011;40937;53.594;10.034;2023-12-20T03:48:48;16.08;;;2.88;;
55037;SDS011;40937;53.594;10.034;2023-12-20T03:51:15;11.32;;;2.78;;
55037;SDS011;40937;53.594;10.034;2023-12-20T03:53:42;21.95;;;3.00;;
55037;SDS011;40937;53.594;10.034;2023-12-20T03:56:09;19.02;;;3.03;;
55037;SDS011;40937;53.594;10.034;2023-12-20T03:58:37;15.43;;;3.83;;
55037;SDS011;40937;53.594;10.034;2023-12-20T04:01:08;11.25;;;2.53;;
55037;SDS011;40937;53.594;10.034;2023-12-20T04:03:37;18.90;;;3.67;;
55037;SDS011;40937;53.594;10.034;2023-12-20T04:06:07;13.85;;;3.45;;
55037;SDS011;40937;53.594;10.034;2023-12-20T04:08:34;10.75;;;2.38;;
55037;SDS011;40937;53.594;10.034;2023-12-20T04:11:01;13.82;;;3.40;;
55037;SDS011;40937;53.594;10.034;2023-12-20T04:13:28;9.18;;;2.38;;
55037;SDS011;40937;53.594;10.034;2023-12-20T04:15:55;12.35;;;3.28;;
55037;SDS011;40937;53.594;10.034;2023-12-20T04:18:23;9.85;;;2.97;;
55037;SDS011;40937;53.594;10.034;2023-12-20T04:20:50;9.15;;;2.70;;
55037;SDS011;40937;53.594;10.034;2023-12-20T04:23:18;16.48;;;3.67;;
55037;SDS011;40937;53.594;10.034;2023-12-20T04:25:46;13.07;;;2.97;;
55037;SDS011;40937;53.594;10.034;2023-12-20T04:28:13;11.68;;;2.90;;
55037;SDS011;40937;53.594;10.034;2023-12-20T04:30:40;9.57;;;2.33;;
55037;SDS011;40937;53.594;10.034;2023-12-20T04:33:08;9.85;;;2.63;;
55037;SDS011;40937;53.594;10.034;2023-12-20T04:35:35;12.77;;;2.95;;
55037;SDS011;40937;53.594;10.034;2023-12-20T04:38:02;7.47;;;2.38;;
55037;SDS011;40937;53.594;10.034;2023-12-20T04:40:31;13.18;;;3.13;;
55037;SDS011;40937;53.594;10.034;2023-12-20T04:42:58;17.42;;;3.33;;
55037;SDS011;40937;53.594;10.034;2023-12-20T04:45:25;10.50;;;2.70;;
55037;SDS011;40937;53.594;10.034;2023-12-20T04:47:52;9.25;;;2.85;;
55037;SDS011;40937;53.594;10.034;2023-12-20T04:50:20;14.85;;;3.00;;
55037;SDS011;40937;53.594;10.034;2023-12-20T04:52:47;11.77;;;3.17;;
55037;SDS011;40937;53.594;10.034;2023-12-20T04:55:14;9.65;;;2.50;;
55037;SDS011;40937;53.594;10.034;2023-12-20T04:57:43;12.73;;;3.25;;
55037;SDS011;40937;53.594;10.034;2023-12-20T05:00:10;21.48;;;3.08;;
55037;SDS011;40937;53.594;10.034;2023-12-20T05:02:39;12.27;;;2.63;;
55037;SDS011;40937;53.594;10.034;2023-12-20T05:05:07;13.50;;;2.72;;
55037;SDS011;40937;53.594;10.034;2023-12-20T05:07:34;9.75;;;2.70;;
55037;SDS011;40937;53.594;10.034;2023-12-20T05:10:02;11.10;;;3.05;;
55037;SDS011;40937;53.594;10.034;2023-12-20T05:12:30;11.88;;;3.50;;
55037;SDS011;40937;53.594;10.034;2023-12-20T05:14:58;11.85;;;2.95;;
55037;SDS011;40937;53.594;10.034;2023-12-20T05:17:25;13.05;;;3.15;;
55037;SDS011;40937;53.594;10.034;2023-12-20T05:19:53;16.45;;;3.47;;
55037;SDS011;40937;53.594;10.034;2023-12-20T05:22:20;13.18;;;3.45;;
55037;SDS011;40937;53.594;10.034;2023-12-20T05:24:47;12.57;;;3.15;;
55037;SDS011;40937;53.594;10.034;2023-12-20T05:27:14;13.43;;;3.63;;
55037;SDS011;40937;53.594;10.034;2023-12-20T05:29:41;20.98;;;3.80;;
55037;SDS011;40937;53.594;10.034;2023-12-20T05:32:10;16.23;;;3.65;;
55037;SDS011;40937;53.594;10.034;2023-12-20T05:34:37;12.98;;;3.10;;
55037;SDS011;40937;53.594;10.034;2023-12-20T05:37:04;15.38;;;3.25;;
55037;SDS011;40937;53.594;10.034;2023-12-20T05:39:32;11.13;;;3.08;;
55037;SDS011;40937;53.594;10.034;2023-12-20T05:41:59;17.77;;;3.63;;
55037;SDS011;40937;53.594;10.034;2023-12-20T05:44:26;16.73;;;2.80;;
55037;SDS011;40937;53.594;10.034;2023-12-20T05:46:53;14.80;;;4.05;;
55037;SDS011;40937;53.594;10.034;2023-12-20T05:49:22;14.48;;;3.22;;
55037;SDS011;40937;53.594;10.034;2023-12-20T05:51:49;16.20;;;3.20;;
55037;SDS011;40937;53.594;10.034;2023-12-20T05:54:16;12.73;;;3.17;;
55037;SDS011;40937;53.594;10.034;2023-12-20T05:56:44;16.08;;;4.13;;
55037;SDS011;40937;53.594;10.034;2023-12-20T05:59:11;15.07;;;3.58;;
55037;SDS011;40937;53.594;10.034;2023-12-20T06:01:38;11.30;;;3.65;;
55037;SDS011;40937;53.594;10.034;2023-12-20T06:04:05;16.00;;;3.92;;
55037;SDS011;40937;53.594;10.034;2023-12-20T06:06:35;14.43;;;3.60;;
55037;SDS011;40937;53.594;10.034;2023-12-20T06:09:07;14.95;;;3.78;;
55037;SDS011;40937;53.594;10.034;2023-12-20T06:11:34;18.70;;;4.18;;
55037;SDS011;40937;53.594;10.034;2023-12-20T06:14:01;15.77;;;3.42;;
55037;SDS011;40937;53.594;10.034;2023-12-20T06:16:28;12.45;;;3.75;;
55037;SDS011;40937;53.594;10.034;2023-12-20T06:18:55;12.45;;;3.60;;
55037;SDS011;40937;53.594;10.034;2023-12-20T06:21:23;12.80;;;3.78;;
55037;SDS011;40937;53.594;10.034;2023-12-20T06:23:51;12.93;;;3.53;;
55037;SDS011;40937;53.594;10.034;2023-12-20T06:26:18;13.05;;;3.30;;
55037;SDS011;40937;53.594;10.034;2023-12-20T06:28:45;15.40;;;3.83;;
55037;SDS011;40937;53.594;10.034;2023-12-20T06:31:13;15.60;;;3.35;;
55037;SDS011;40937;53.594;10.034;2023-12-20T06:33:40;13.80;;;3.75;;
55037;SDS011;40937;53.594;10.034;2023-12-20T06:36:07;19.25;;;4.60;;
55037;SDS011;40937;53.594;10.034;2023-12-20T06:38:37;21.70;;;4.30;;
55037;SDS011;40937;53.594;10.034;2023-12-20T06:41:06;19.50;;;3.95;;
55037;SDS011;40937;53.594;10.034;2023-12-20T06:43:33;14.73;;;4.05;;
55037;SDS011;40937;53.594;10.034;2023-12-20T06:46:00;13.38;;;3.70;;
55037;SDS011;40937;53.594;10.034;2023-12-20T06:48:27;26.50;;;4.22;;
55037;SDS011;40937;53.594;10.034;2023-12-20T06:50:54;11.73;;;3.25;;
55037;SDS011;40937;53.594;10.034;2023-12-20T06:53:22;16.15;;;3.92;;
55037;SDS011;40937;53.594;10.034;2023-12-20T06:55:49;15.00;;;3.55;;
55037;SDS011;40937;53.594;10.034;2023-12-20T06:58:18;15.93;;;4.43;;
55037;SDS011;40937;53.594;10.034;2023-12-20T07:00:45;11.35;;;3.15;;
55037;SDS011;40937;53.594;10.034;2023-12-20T07:03:12;15.10;;;3.83;;
55037;SDS011;40937;53.594;10.034;2023-12-20T07:05:39;13.52;;;2.92;;
55037;SDS011;40937;53.594;10.034;2023-12-20T07:08:07;17.85;;;4.10;;
55037;SDS011;40937;53.594;10.034;2023-12-20T07:10:34;10.18;;;2.42;;
55037;SDS011;40937;53.594;10.034;2023-12-20T07:13:02;14.60;;;3.00;;
55037;SDS011;40937;53.594;10.034;2023-12-20T07:15:30;11.30;;;3.22;;
55037;SDS011;40937;53.594;10.034;2023-12-20T07:17:58;14.63;;;3.55;;
55037;SDS011;40937;53.594;10.034;2023-12-20T07:20:26;12.70;;;3.30;;
55037;SDS011;40937;53.594;10.034;2023-12-20T07:22:53;13.18;;;3.75;;
55037;SDS011;40937;53.594;10.034;2023-12-20T07:25:20;14.25;;;3.38;;
55037;SDS011;40937;53.594;10.034;2023-12-20T07:27:47;15.95;;;4.45;;
55037;SDS011;40937;53.594;10.034;2023-12-20T07:30:15;13.25;;;4.05;;
55037;SDS011;40937;53.594;10.034;2023-12-20T07:32:43;11.30;;;3.75;;
55037;SDS011;40937;53.594;10.034;2023-12-20T07:35:11;15.30;;;3.63;;
55037;SDS011;40937;53.594;10.034;2023-12-20T07:37:38;20.17;;;4.47;;
55037;SDS011;40937;53.594;10.034;2023-12-20T07:40:05;19.25;;;4.85;;
55037;SDS011;40937;53.594;10.034;2023-12-20T07:42:33;16.25;;;4.50;;
55037;SDS011;40937;53.594;10.034;2023-12-20T07:45:01;19.73;;;4.43;;
55037;SDS011;40937;53.594;10.034;2023-12-20T07:47:28;14.82;;;4.28;;
55037;SDS011;40937;53.594;10.034;2023-12-20T07:49:56;11.48;;;4.10;;
55037;SDS011;40937;53.594;10.034;2023-12-20T07:52:24;21.63;;;4.20;;
55037;SDS011;40937;53.594;10.034;2023-12-20T07:54:51;18.40;;;4.43;;
55037;SDS011;40937;53.594;10.034;2023-12-20T07:57:18;17.77;;;4.70;;
55037;SDS011;40937;53.594;10.034;2023-12-20T07:59:46;14.27;;;4.68;;
55037;SDS011;40937;53.594;10.034;2023-12-20T08:02:13;15.52;;;4.05;;
55037;SDS011;40937;53.594;10.034;2023-12-20T08:04:40;15.60;;;3.95;;
55037;SDS011;40937;53.594;10.034;2023-12-20T08:07:09;13.95;;;4.05;;
55037;SDS011;40937;53.594;10.034;2023-12-20T08:09:36;18.10;;;4.68;;
55037;SDS011;40937;53.594;10.034;2023-12-20T08:12:03;15.57;;;3.83;;
55037;SDS011;40937;53.594;10.034;2023-12-20T08:14:32;11.88;;;3.58;;
55037;SDS011;40937;53.594;10.034;2023-12-20T08:16:59;17.90;;;4.88;;
55037;SDS011;40937;53.594;10.034;2023-12-20T08:19:26;20.35;;;4.82;;
55037;SDS011;40937;53.594;10.034;2023-12-20T08:21:53;20.42;;;4.53;;
55037;SDS011;40937;53.594;10.034;2023-12-20T08:24:22;14.90;;;4.32;;
55037;SDS011;40937;53.594;10.034;2023-12-20T08:26:49;24.05;;;4.75;;
55037;SDS011;40937;53.594;10.034;2023-12-20T08:29:16;18.42;;;4.35;;
55037;SDS011;40937;53.594;10.034;2023-12-20T08:31:43;17.27;;;4.80;;
55037;SDS011;40937;53.594;10.034;2023-12-20T08:34:12;11.73;;;4.45;;
55037;SDS011;40937;53.594;10.034;2023-12-20T08:36:40;16.10;;;4.80;;
55037;SDS011;40937;53.594;10.034;2023-12-20T08:39:07;14.60;;;4.20;;
55037;SDS011;40937;53.594;10.034;2023-12-20T08:41:36;22.15;;;4.97;;
55037;SDS011;40937;53.594;10.034;2023-12-20T08:44:03;25.88;;;4.43;;
55037;SDS011;40937;53.594;10.034;2023-12-20T08:46:30;29.33;;;5.00;;
55037;SDS011;40937;53.594;10.034;2023-12-20T08:48:58;20.90;;;4.53;;
55037;SDS011;40937;53.594;10.034;2023-12-20T08:51:26;23.88;;;5.85;;
55037;SDS011;40937;53.594;10.034;2023-12-20T08:53:53;19.75;;;4.43;;
55037;SDS011;40937;53.594;10.034;2023-12-20T08:56:20;23.73;;;5.05;;
55037;SDS011;40937;53.594;10.034;2023-12-20T08:58:49;19.98;;;4.88;;
55037;SDS011;40937;53.594;10.034;2023-12-20T09:01:16;16.10;;;4.45;;
55037;SDS011;40937;53.594;10.034;2023-12-20T09:03:43;18.58;;;5.18;;
55037;SDS011;40937;53.594;10.034;2023-12-20T09:06:10;22.95;;;4.45;;
55037;SDS011;40937;53.594;10.034;2023-12-20T09:08:37;16.25;;;4.35;;
55037;SDS011;40937;53.594;10.034;2023-12-20T09:11:05;12.82;;;3.53;;
55037;SDS011;40937;53.594;10.034;2023-12-20T09:13:34;12.95;;;3.95;;
55037;SDS011;40937;53.594;10.034;2023-12-20T09:16:03;14.18;;;3.38;;
55037;SDS011;40937;53.594;10.034;2023-12-20T09:18:30;15.43;;;4.07;;
55037;SDS011;40937;53.594;10.034;2023-12-20T09:20:57;15.13;;;3.85;;
55037;SDS011;40937;53.594;10.034;2023-12-20T09:23:24;13.50;;;4.13;;
55037;SDS011;40937;53.594;10.034;2023-12-20T09:25:52;10.40;;;3.20;;
55037;SDS011;40937;53.594;10.034;2023-12-20T09:28:19;8.05;;;2.83;;
55037;SDS011;40937;53.594;10.034;2023-12-20T09:30:46;5.78;;;2.40;;
55037;SDS011;40937;53.594;10.034;2023-12-20T09:33:15;9.80;;;2.45;;
55037;SDS011;40937;53.594;10.034;2023-12-20T09:35:42;4.60;;;1.90;;
55037;SDS011;40937;53.594;10.034;2023-12-20T09:38:09;4.13;;;1.63;;
55037;SDS011;40937;53.594;10.034;2023-12-20T09:40:38;6.43;;;1.85;;
55037;SDS011;40937;53.594;10.034;2023-12-20T09:43:08;5.60;;;1.90;;
55037;SDS011;40937;53.594;10.034;2023-12-20T09:45:40;5.50;;;1.45;;
55037;SDS011;40937;53.594;10.034;2023-12-20T09:48:07;2.72;;;1.20;;
55037;SDS011;40937;53.594;10.034;2023-12-20T09:50:39;2.95;;;1.15;;
55037;SDS011;40937;53.594;10.034;2023-12-20T09:53:07;6.05;;;1.25;;
55037;SDS011;40937;53.594;10.034;2023-12-20T09:55:36;4.30;;;0.90;;
55037;SDS011;40937;53.594;10.034;2023-12-20T09:58:04;3.30;;;0.90;;
55037;SDS011;40937;53.594;10.034;2023-12-20T10:00:34;3.83;;;0.95;;
55037;SDS011;40937;53.594;10.034;2023-12-20T10:03:01;2.55;;;1.05;;
55037;SDS011;40937;53.594;10.034;2023-12-20T10:05:30;1.42;;;0.80;;
55037;SDS011;40937;53.594;10.034;2023-12-20T10:08:00;1.90;;;1.00;;
55037;SDS011;40937;53.594;10.034;2023-12-20T10:10:28;5.32;;;0.98;;
55037;SDS011;40937;53.594;10.034;2023-12-20T10:13:03;4.63;;;1.15;;
55037;SDS011;40937;53.594;10.034;2023-12-20T10:15:32;3.78;;;1.30;;
55037;SDS011;40937;53.594;10.034;2023-12-20T10:17:59;1.42;;;0.73;;
55037;SDS011;40937;53.594;10.034;2023-12-20T10:20:27;6.18;;;1.13;;
55037;SDS011;40937;53.594;10.034;2023-12-20T10:22:55;2.38;;;0.98;;
55037;SDS011;40937;53.594;10.034;2023-12-20T10:25:24;6.63;;;1.50;;
55037;SDS011;40937;53.594;10.034;2023-12-20T10:30:37;5.38;;;1.30;;
55037;SDS011;40937;53.594;10.034;2023-12-20T10:33:05;4.25;;;1.30;;
55037;SDS011;40937;53.594;10.034;2023-12-20T10:35:33;4.40;;;1.08;;
55037;SDS011;40937;53.594;10.034;2023-12-20T10:38:02;2.60;;;1.23;;
55037;SDS011;40937;53.594;10.034;2023-12-20T10:40:31;2.25;;;0.82;;
55037;SDS011;40937;53.594;10.034;2023-12-20T10:43:02;2.90;;;1.25;;
55037;SDS011;40937;53.594;10.034;2023-12-20T10:45:30;9.68;;;1.95;;
55037;SDS011;40937;53.594;10.034;2023-12-20T10:47:57;7.63;;;1.70;;
55037;SDS011;40937;53.594;10.034;2023-12-20T10:50:26;7.50;;;1.13;;
55037;SDS011;40937;53.594;10.034;2023-12-20T10:52:54;4.63;;;1.48;;
55037;SDS011;40937;53.594;10.034;2023-12-20T10:55:22;7.57;;;1.40;;
55037;SDS011;40937;53.594;10.034;2023-12-20T10:57:51;6.75;;;1.73;;
55037;SDS011;40937;53.594;10.034;2023-12-20T11:00:18;6.88;;;2.58;;
55037;SDS011;40937;53.594;10.034;2023-12-20T11:02:48;9.30;;;1.50;;
55037;SDS011;40937;53.594;10.034;2023-12-20T11:05:20;6.80;;;1.83;;
55037;SDS011;40937;53.594;10.034;2023-12-20T11:07:57;4.70;;;1.20;;
55037;SDS011;40937;53.594;10.034;2023-12-20T11:10:30;9.25;;;2.42;;
55037;SDS011;40937;53.594;10.034;2023-12-20T11:13:06;11.00;;;1.70;;
55037;SDS011;40937;53.594;10.034;2023-12-20T11:15:37;5.40;;;1.90;;
55037;SDS011;40937;53.594;10.034;2023-12-20T11:18:04;29.60;;;15.35;;
55037;SDS011;40937;53.594;10.034;2023-12-20T11:20:36;14.27;;;5.13;;
55037;SDS011;40937;53.594;10.034;2023-12-20T11:23:04;12.30;;;3.13;;
55037;SDS011;40937;53.594;10.034;2023-12-20T11:25:40;7.40;;;1.70;;
55037;SDS011;40937;53.594;10.034;2023-12-20T11:28:14;3.17;;;1.25;;
55037;SDS011;40937;53.594;10.034;2023-12-20T11:30:46;5.30;;;1.65;;
55037;SDS011;40937;53.594;10.034;2023-12-20T11:33:14;3.63;;;1.25;;
55037;SDS011;40937;53.594;10.034;2023-12-20T11:35:42;3.22;;;1.00;;
55037;SDS011;40937;53.594;10.034;2023-12-20T11:38:10;3.38;;;0.90;;
55037;SDS011;40937;53.594;10.034;2023-12-20T11:40:37;5.57;;;1.20;;
55037;SDS011;40937;53.594;10.034;2023-12-20T11:43:04;3.60;;;1.17;;
55037;SDS011;40937;53.594;10.034;2023-12-20T11:45:33;4.40;;;0.90;;
55037;SDS011;40937;53.594;10.034;2023-12-20T11:48:01;6.07;;;1.30;;
55037;SDS011;40937;53.594;10.034;2023-12-20T11:50:29;9.73;;;1.83;;
55037;SDS011;40937;53.594;10.034;2023-12-20T11:52:57;6.40;;;1.88;;
55037;SDS011;40937;53.594;10.034;2023-12-20T11:55:24;7.00;;;2.00;;
55037;SDS011;40937;53.594;10.034;2023-12-20T11:57:51;8.30;;;1.95;;
55037;SDS011;40937;53.594;10.034;2023-12-20T12:00:19;12.57;;;2.42;;
55037;SDS011;40937;53.594;10.034;2023-12-20T12:02:58;8.73;;;2.78;;
55037;SDS011;40937;53.594;10.034;2023-12-20T12:05:27;12.55;;;3.40;;
55037;SDS011;40937;53.594;10.034;2023-12-20T12:07:54;14.95;;;3.03;;
55037;SDS011;40937;53.594;10.034;2023-12-20T12:10:21;17.05;;;2.97;;
55037;SDS011;40937;53.594;10.034;2023-12-20T12:12:48;13.25;;;2.65;;
55037;SDS011;40937;53.594;10.034;2023-12-20T12:15:16;11.80;;;2.47;;
55037;SDS011;40937;53.594;10.034;2023-12-20T12:17:43;13.70;;;2.80;;
55037;SDS011;40937;53.594;10.034;2023-12-20T12:20:12;12.57;;;3.20;;
55037;SDS011;40937;53.594;10.034;2023-12-20T12:22:39;13.63;;;2.67;;
55037;SDS011;40937;53.594;10.034;2023-12-20T12:25:10;14.48;;;2.92;;
55037;SDS011;40937;53.594;10.034;2023-12-20T12:27:39;16.02;;;4.07;;
55037;SDS011;40937;53.594;10.034;2023-12-20T12:30:08;19.75;;;3.20;;
55037;SDS011;40937;53.594;10.034;2023-12-20T12:32:36;14.68;;;3.72;;
55037;SDS011;40937;53.594;10.034;2023-12-20T12:35:05;16.20;;;3.88;;
55037;SDS011;40937;53.594;10.034;2023-12-20T12:37:36;15.75;;;3.55;;
55037;SDS011;40937;53.594;10.034;2023-12-20T12:40:05;16.73;;;3.92;;
55037;SDS011;40937;53.594;10.034;2023-12-20T12:42:33;13.13;;;3.38;;
55037;SDS011;40937;53.594;10.034;2023-12-20T12:45:00;15.32;;;3.78;;
55037;SDS011;40937;53.594;10.034;2023-12-20T12:47:28;19.33;;;4.15;;
55037;SDS011;40937;53.594;10.034;2023-12-20T12:49:55;19.52;;;4.30;;
55037;SDS011;40937;53.594;10.034;2023-12-20T12:52:23;24.50;;;4.63;;
55037;SDS011;40937;53.594;10.034;2023-12-20T12:54:51;17.00;;;4.20;;
55037;SDS011;40937;53.594;10.034;2023-12-20T12:57:19;17.20;;;4.63;;
55037;SDS011;40937;53.594;10.034;2023-12-20T12:59:46;21.88;;;6.63;;
55037;SDS011;40937;53.594;10.034;2023-12-20T13:02:12;25.33;;;7.07;;
55037;SDS011;40937;53.594;10.034;2023-12-20T13:04:40;15.90;;;4.20;;
55037;SDS011;40937;53.594;10.034;2023-12-20T13:07:08;16.17;;;3.90;;
55037;SDS011;40937;53.594;10.034;2023-12-20T13:09:37;16.48;;;4.05;;
55037;SDS011;40937;53.594;10.034;2023-12-20T13:12:06;17.38;;;3.35;;
55037;SDS011;40937;53.594;10.034;2023-12-20T13:14:34;18.75;;;3.88;;
55037;SDS011;40937;53.594;10.034;2023-12-20T13:17:02;19.88;;;3.95;;
55037;SDS011;40937;53.594;10.034;2023-12-20T13:19:30;22.98;;;4.63;;
55037;SDS011;40937;53.594;10.034;2023-12-20T13:21:57;22.42;;;4.45;;
55037;SDS011;40937;53.594;10.034;2023-12-20T13:24:25;14.82;;;3.70;;
55037;SDS011;40937;53.594;10.034;2023-12-20T13:26:52;15.75;;;4.10;;
55037;SDS011;40937;53.594;10.034;2023-12-20T13:29:21;17.70;;;4.10;;
55037;SDS011;40937;53.594;10.034;2023-12-20T13:31:48;18.35;;;4.97;;
55037;SDS011;40937;53.594;10.034;2023-12-20T13:34:15;29.70;;;4.63;;
55037;SDS011;40937;53.594;10.034;2023-12-20T13:36:43;23.63;;;5.07;;
55037;SDS011;40937;53.594;10.034;2023-12-20T13:39:13;20.38;;;4.80;;
55037;SDS011;40937;53.594;10.034;2023-12-20T13:41:40;17.83;;;4.97;;
55037;SDS011;40937;53.594;10.034;2023-12-20T13:44:07;24.58;;;4.95;;
55037;SDS011;40937;53.594;10.034;2023-12-20T13:46:37;23.15;;;4.95;;
55037;SDS011;40937;53.594;10.034;2023-12-20T13:49:04;20.38;;;4.63;;
55037;SDS011;40937;53.594;10.034;2023-12-20T13:51:31;19.52;;;4.72;;
55037;SDS011;40937;53.594;10.034;2023-12-20T13:53:58;19.40;;;5.43;;
55037;SDS011;40937;53.594;10.034;2023-12-20T13:56:26;17.98;;;4.53;;
55037;SDS011;40937;53.594;10.034;2023-12-20T13:58:53;18.63;;;4.78;;
55037;SDS011;40937;53.594;10.034;2023-12-20T14:01:20;23.15;;;6.00;;
55037;SDS011;40937;53.594;10.034;2023-12-20T14:03:48;20.25;;;5.70;;
55037;SDS011;40937;53.594;10.034;2023-12-20T14:06:16;23.20;;;5.75;;
55037;SDS011;40937;53.594;10.034;2023-12-20T14:08:43;21.58;;;5.30;;
55037;SDS011;40937;53.594;10.034;2023-12-20T14:11:10;25.80;;;6.07;;
55037;SDS011;40937;53.594;10.034;2023-12-20T14:13:38;22.48;;;5.90;;
55037;SDS011;40937;53.594;10.034;2023-12-20T14:16:05;26.50;;;5.55;;
55037;SDS011;40937;53.594;10.034;2023-12-20T14:18:32;27.52;;;5.88;;
55037;SDS011;40937;53.594;10.034;2023-12-20T14:21:01;26.20;;;6.50;;
55037;SDS011;40937;53.594;10.034;2023-12-20T14:23:28;22.55;;;5.90;;
55037;SDS011;40937;53.594;10.034;2023-12-20T14:25:55;20.98;;;5.97;;
55037;SDS011;40937;53.594;10.034;2023-12-20T14:28:24;27.05;;;5.30;;